sensor_id;sensor_type;location;lat;lon;timestamp;pressure;altitude;pressure_sealevel;temperature
67822;BMP180;54434;50.096;20.082;2023-08-20T00:01:12;99269.80;;;19.30
67822;BMP180;54434;50.096;20.082;2023-08-20T00:03:52;99268.60;;;19.30
67822;BMP180;54434;50.096;20.082;2023-08-20T00:06:30;99269.60;;;19.30
67822;BMP180;54434;50.096;20.082;2023-08-20T00:09:07;99267.80;;;19.30
67822;BMP180;54434;50.096;20.082;2023-08-20T00:11:43;99266.40;;;19.30
67822;BMP180;54434;50.096;20.082;2023-08-20T00:14:21;99263.20;;;19.30
67822;BMP180;54434;50.096;20.082;2023-08-20T00:17:19;99259.00;;;19.30
67822;BMP180;54434;50.096;20.082;2023-08-20T00:19:57;99256.20;;;19.28
67822;BMP180;54434;50.096;20.082;2023-08-20T00:22:34;99256.40;;;19.24
67822;BMP180;54434;50.096;20.082;2023-08-20T00:25:16;99260.40;;;19.20
67822;BMP180;54434;50.096;20.082;2023-08-20T00:27:52;99261.60;;;19.20
67822;BMP180;54434;50.096;20.082;2023-08-20T00:30:29;99263.40;;;19.20
67822;BMP180;54434;50.096;20.082;2023-08-20T00:33:06;99265.20;;;19.20
67822;BMP180;54434;50.096;20.082;2023-08-20T00:35:42;99259.40;;;19.20
67822;BMP180;54434;50.096;20.082;2023-08-20T00:38:19;99253.20;;;19.18
67822;BMP180;54434;50.096;20.082;2023-08-20T00:40:55;99253.60;;;19.10
67822;BMP180;54434;50.096;20.082;2023-08-20T00:43:32;99250.00;;;19.10
67822;BMP180;54434;50.096;20.082;2023-08-20T00:46:08;99247.00;;;19.10
67822;BMP180;54434;50.096;20.082;2023-08-20T00:48:45;99249.40;;;19.10
67822;BMP180;54434;50.096;20.082;2023-08-20T00:51:22;99244.60;;;19.02
67822;BMP180;54434;50.096;20.082;2023-08-20T00:53:59;99244.20;;;19.00
67822;BMP180;54434;50.096;20.082;2023-08-20T00:56:36;99245.60;;;19.00
67822;BMP180;54434;50.096;20.082;2023-08-20T00:59:13;99245.00;;;19.00
67822;BMP180;54434;50.096;20.082;2023-08-20T01:01:50;99241.40;;;18.96
67822;BMP180;54434;50.096;20.082;2023-08-20T01:04:27;99239.40;;;18.90
67822;BMP180;54434;50.096;20.082;2023-08-20T01:07:17;99235.40;;;18.90
67822;BMP180;54434;50.096;20.082;2023-08-20T01:10:06;99234.20;;;18.90
67822;BMP180;54434;50.096;20.082;2023-08-20T01:12:45;99237.20;;;18.90
67822;BMP180;54434;50.096;20.082;2023-08-20T01:15:23;99241.60;;;18.90
67822;BMP180;54434;50.096;20.082;2023-08-20T01:18:00;99244.60;;;18.90
67822;BMP180;54434;50.096;20.082;2023-08-20T01:20:45;99241.60;;;18.88
67822;BMP180;54434;50.096;20.082;2023-08-20T01:24:13;99248.80;;;18.80
67822;BMP180;54434;50.096;20.082;2023-08-20T01:27:42;99248.20;;;18.80
67822;BMP180;54434;50.096;20.082;2023-08-20T01:30:22;99249.60;;;18.80
67822;BMP180;54434;50.096;20.082;2023-08-20T01:33:01;99248.60;;;18.80
67822;BMP180;54434;50.096;20.082;2023-08-20T01:35:38;99249.00;;;18.80
67822;BMP180;54434;50.096;20.082;2023-08-20T01:38:22;99247.20;;;18.76
67822;BMP180;54434;50.096;20.082;2023-08-20T01:40:59;99250.80;;;18.74
67822;BMP180;54434;50.096;20.082;2023-08-20T01:43:35;99249.60;;;18.70
67822;BMP180;54434;50.096;20.082;2023-08-20T01:46:12;99248.40;;;18.70
67822;BMP180;54434;50.096;20.082;2023-08-20T01:48:48;99246.80;;;18.70
67822;BMP180;54434;50.096;20.082;2023-08-20T01:51:25;99245.60;;;18.70
67822;BMP180;54434;50.096;20.082;2023-08-20T01:54:01;99244.40;;;18.70
67822;BMP180;54434;50.096;20.082;2023-08-20T01:56:38;99244.00;;;18.60
67822;BMP180;54434;50.096;20.082;2023-08-20T01:59:14;99243.80;;;18.60
67822;BMP180;54434;50.096;20.082;2023-08-20T02:01:51;99247.60;;;18.60
67822;BMP180;54434;50.096;20.082;2023-08-20T02:04:28;99247.00;;;18.60
67822;BMP180;54434;50.096;20.082;2023-08-20T02:07:04;99253.80;;;18.56
67822;BMP180;54434;50.096;20.082;2023-08-20T02:09:41;99254.00;;;18.50
67822;BMP180;54434;50.096;20.082;2023-08-20T02:12:17;99255.20;;;18.50
67822;BMP180;54434;50.096;20.082;2023-08-20T02:14:54;99256.00;;;18.50
67822;BMP180;54434;50.096;20.082;2023-08-20T02:17:30;99255.80;;;18.50
67822;BMP180;54434;50.096;20.082;2023-08-20T02:20:09;99255.60;;;18.48
67822;BMP180;54434;50.096;20.082;2023-08-20T02:22:46;99254.40;;;18.40
67822;BMP180;54434;50.096;20.082;2023-08-20T02:25:24;99253.00;;;18.40
67822;BMP180;54434;50.096;20.082;2023-08-20T02:28:02;99250.80;;;18.40
67822;BMP180;54434;50.096;20.082;2023-08-20T02:30:45;99250.40;;;18.40
67822;BMP180;54434;50.096;20.082;2023-08-20T02:33:22;99251.80;;;18.40
67822;BMP180;54434;50.096;20.082;2023-08-20T02:36:05;99250.40;;;18.40
67822;BMP180;54434;50.096;20.082;2023-08-20T02:38:41;99249.60;;;18.40
67822;BMP180;54434;50.096;20.082;2023-08-20T02:41:18;99252.00;;;18.40
67822;BMP180;54434;50.096;20.082;2023-08-20T02:43:54;99249.40;;;18.40
67822;BMP180;54434;50.096;20.082;2023-08-20T02:46:31;99248.60;;;18.40
67822;BMP180;54434;50.096;20.082;2023-08-20T02:49:08;99248.60;;;18.30
67822;BMP180;54434;50.096;20.082;2023-08-20T02:51:46;99247.60;;;18.30
67822;BMP180;54434;50.096;20.082;2023-08-20T02:54:22;99244.20;;;18.30
67822;BMP180;54434;50.096;20.082;2023-08-20T02:57:01;99246.20;;;18.30
67822;BMP180;54434;50.096;20.082;2023-08-20T02:59:38;99242.60;;;18.30
67822;BMP180;54434;50.096;20.082;2023-08-20T03:02:14;99243.60;;;18.30
67822;BMP180;54434;50.096;20.082;2023-08-20T03:04:51;99248.00;;;18.30
67822;BMP180;54434;50.096;20.082;2023-08-20T03:07:28;99248.80;;;18.30
67822;BMP180;54434;50.096;20.082;2023-08-20T03:10:05;99248.80;;;18.30
67822;BMP180;54434;50.096;20.082;2023-08-20T03:12:42;99252.60;;;18.28
67822;BMP180;54434;50.096;20.082;2023-08-20T03:15:18;99254.80;;;18.22
67822;BMP180;54434;50.096;20.082;2023-08-20T03:17:55;99255.80;;;18.20
67822;BMP180;54434;50.096;20.082;2023-08-20T03:20:31;99255.80;;;18.20
67822;BMP180;54434;50.096;20.082;2023-08-20T03:23:08;99257.20;;;18.20
67822;BMP180;54434;50.096;20.082;2023-08-20T03:25:44;99257.80;;;18.20
67822;BMP180;54434;50.096;20.082;2023-08-20T03:28:22;99260.80;;;18.20
67822;BMP180;54434;50.096;20.082;2023-08-20T03:31:04;99263.60;;;18.20
67822;BMP180;54434;50.096;20.082;2023-08-20T03:33:43;99267.60;;;18.20
67822;BMP180;54434;50.096;20.082;2023-08-20T03:36:20;99265.20;;;18.20
67822;BMP180;54434;50.096;20.082;2023-08-20T03:38:57;99270.20;;;18.20
67822;BMP180;54434;50.096;20.082;2023-08-20T03:41:33;99273.80;;;18.20
67822;BMP180;54434;50.096;20.082;2023-08-20T03:44:10;99278.00;;;18.20
67822;BMP180;54434;50.096;20.082;2023-08-20T03:46:47;99278.20;;;18.20
67822;BMP180;54434;50.096;20.082;2023-08-20T03:49:23;99277.40;;;18.20
67822;BMP180;54434;50.096;20.082;2023-08-20T03:52:00;99281.20;;;18.20
67822;BMP180;54434;50.096;20.082;2023-08-20T03:54:37;99277.20;;;18.30
67822;BMP180;54434;50.096;20.082;2023-08-20T03:57:13;99277.00;;;18.30
67822;BMP180;54434;50.096;20.082;2023-08-20T03:59:50;99280.60;;;18.30
67822;BMP180;54434;50.096;20.082;2023-08-20T04:02:26;99282.40;;;18.40
67822;BMP180;54434;50.096;20.082;2023-08-20T04:05:04;99288.60;;;18.46
67822;BMP180;54434;50.096;20.082;2023-08-20T04:07:40;99285.40;;;18.50
67822;BMP180;54434;50.096;20.082;2023-08-20T04:10:17;99284.20;;;18.60
67822;BMP180;54434;50.096;20.082;2023-08-20T04:12:53;99285.40;;;18.70
67822;BMP180;54434;50.096;20.082;2023-08-20T04:15:30;99284.20;;;18.80
67822;BMP180;54434;50.096;20.082;2023-08-20T04:18:07;99289.40;;;18.90
67822;BMP180;54434;50.096;20.082;2023-08-20T04:20:44;99289.60;;;19.10
67822;BMP180;54434;50.096;20.082;2023-08-20T04:23:21;99287.80;;;19.30
67822;BMP180;54434;50.096;20.082;2023-08-20T04:25:58;99291.40;;;19.50
67822;BMP180;54434;50.096;20.082;2023-08-20T04:28:34;99290.80;;;19.70
67822;BMP180;54434;50.096;20.082;2023-08-20T04:31:12;99290.40;;;19.94
67822;BMP180;54434;50.096;20.082;2023-08-20T04:34:04;99288.80;;;20.30
67822;BMP180;54434;50.096;20.082;2023-08-20T04:36:50;99291.40;;;20.60
67822;BMP180;54434;50.096;20.082;2023-08-20T04:39:27;99294.20;;;20.92
67822;BMP180;54434;50.096;20.082;2023-08-20T04:42:05;99292.60;;;21.30
67822;BMP180;54434;50.096;20.082;2023-08-20T04:44:41;99297.80;;;21.66
67822;BMP180;54434;50.096;20.082;2023-08-20T04:47:18;99297.80;;;22.08
67822;BMP180;54434;50.096;20.082;2023-08-20T04:49:55;99300.60;;;22.44
67822;BMP180;54434;50.096;20.082;2023-08-20T04:52:32;99301.60;;;22.86
67822;BMP180;54434;50.096;20.082;2023-08-20T04:55:10;99307.60;;;23.22
67822;BMP180;54434;50.096;20.082;2023-08-20T04:57:46;99307.80;;;23.60
67822;BMP180;54434;50.096;20.082;2023-08-20T05:00:24;99310.40;;;24.00
67822;BMP180;54434;50.096;20.082;2023-08-20T05:03:09;99311.40;;;24.40
67822;BMP180;54434;50.096;20.082;2023-08-20T05:05:51;99311.00;;;24.80
67822;BMP180;54434;50.096;20.082;2023-08-20T05:08:29;99309.40;;;25.20
67822;BMP180;54434;50.096;20.082;2023-08-20T05:11:05;99307.00;;;25.56
67822;BMP180;54434;50.096;20.082;2023-08-20T05:13:44;99309.20;;;25.90
67822;BMP180;54434;50.096;20.082;2023-08-20T05:16:20;99309.00;;;26.24
67822;BMP180;54434;50.096;20.082;2023-08-20T05:18:58;99302.80;;;26.54
67822;BMP180;54434;50.096;20.082;2023-08-20T05:21:34;99309.00;;;26.86
67822;BMP180;54434;50.096;20.082;2023-08-20T05:24:11;99310.60;;;27.10
67822;BMP180;54434;50.096;20.082;2023-08-20T05:26:49;99313.40;;;27.38
67822;BMP180;54434;50.096;20.082;2023-08-20T05:29:26;99313.20;;;27.64
67822;BMP180;54434;50.096;20.082;2023-08-20T05:32:03;99312.80;;;27.94
67822;BMP180;54434;50.096;20.082;2023-08-20T05:34:39;99315.60;;;28.28
67822;BMP180;54434;50.096;20.082;2023-08-20T05:37:16;99318.60;;;28.56
67822;BMP180;54434;50.096;20.082;2023-08-20T05:39:52;99321.00;;;28.88
67822;BMP180;54434;50.096;20.082;2023-08-20T05:42:33;99318.20;;;29.22
67822;BMP180;54434;50.096;20.082;2023-08-20T05:45:14;99318.80;;;29.54
67822;BMP180;54434;50.096;20.082;2023-08-20T05:47:50;99320.20;;;29.80
67822;BMP180;54434;50.096;20.082;2023-08-20T05:50:29;99324.40;;;30.10
67822;BMP180;54434;50.096;20.082;2023-08-20T05:53:06;99330.40;;;30.40
67822;BMP180;54434;50.096;20.082;2023-08-20T05:55:43;99330.20;;;30.76
67822;BMP180;54434;50.096;20.082;2023-08-20T05:58:20;99333.40;;;30.90
67822;BMP180;54434;50.096;20.082;2023-08-20T06:00:56;99332.60;;;31.10
67822;BMP180;54434;50.096;20.082;2023-08-20T06:03:32;99337.40;;;31.20
67822;BMP180;54434;50.096;20.082;2023-08-20T06:06:09;99335.80;;;31.40
67822;BMP180;54434;50.096;20.082;2023-08-20T06:08:46;99341.20;;;31.60
67822;BMP180;54434;50.096;20.082;2023-08-20T06:11:40;99343.60;;;31.70
67822;BMP180;54434;50.096;20.082;2023-08-20T06:14:17;99347.20;;;31.80
67822;BMP180;54434;50.096;20.082;2023-08-20T06:16:53;99348.40;;;32.02
67822;BMP180;54434;50.096;20.082;2023-08-20T06:19:30;99353.20;;;32.28
67822;BMP180;54434;50.096;20.082;2023-08-20T06:22:08;99356.80;;;32.40
67822;BMP180;54434;50.096;20.082;2023-08-20T06:24:44;99354.00;;;32.60
67822;BMP180;54434;50.096;20.082;2023-08-20T06:27:20;99359.60;;;32.70
67822;BMP180;54434;50.096;20.082;2023-08-20T06:29:57;99358.80;;;32.88
67822;BMP180;54434;50.096;20.082;2023-08-20T06:32:35;99360.40;;;33.18
67822;BMP180;54434;50.096;20.082;2023-08-20T06:35:12;99364.00;;;33.40
67822;BMP180;54434;50.096;20.082;2023-08-20T06:37:49;99361.80;;;33.58
67822;BMP180;54434;50.096;20.082;2023-08-20T06:40:26;99362.80;;;33.80
67822;BMP180;54434;50.096;20.082;2023-08-20T06:43:02;99366.00;;;33.80
67822;BMP180;54434;50.096;20.082;2023-08-20T06:45:38;99364.80;;;33.70
67822;BMP180;54434;50.096;20.082;2023-08-20T06:48:15;99370.40;;;33.80
67822;BMP180;54434;50.096;20.082;2023-08-20T06:50:54;99376.00;;;34.00
67822;BMP180;54434;50.096;20.082;2023-08-20T06:53:31;99375.80;;;34.10
67822;BMP180;54434;50.096;20.082;2023-08-20T06:56:08;99383.60;;;34.40
67822;BMP180;54434;50.096;20.082;2023-08-20T06:58:47;99385.40;;;34.60
67822;BMP180;54434;50.096;20.082;2023-08-20T07:01:24;99384.20;;;34.70
67822;BMP180;54434;50.096;20.082;2023-08-20T07:04:01;99382.20;;;34.70
67822;BMP180;54434;50.096;20.082;2023-08-20T07:06:38;99384.20;;;34.72
67822;BMP180;54434;50.096;20.082;2023-08-20T07:09:15;99386.60;;;34.80
67822;BMP180;54434;50.096;20.082;2023-08-20T07:11:51;99385.20;;;35.00
67822;BMP180;54434;50.096;20.082;2023-08-20T07:14:28;99386.00;;;35.10
67822;BMP180;54434;50.096;20.082;2023-08-20T07:17:05;99383.40;;;35.10
67822;BMP180;54434;50.096;20.082;2023-08-20T07:19:42;99386.80;;;35.20
67822;BMP180;54434;50.096;20.082;2023-08-20T07:22:19;99389.40;;;35.40
67822;BMP180;54434;50.096;20.082;2023-08-20T07:24:55;99392.40;;;35.54
67822;BMP180;54434;50.096;20.082;2023-08-20T07:27:31;99391.20;;;35.70
67822;BMP180;54434;50.096;20.082;2023-08-20T07:30:11;99392.40;;;35.80
67822;BMP180;54434;50.096;20.082;2023-08-20T07:32:48;99397.00;;;36.00
67822;BMP180;54434;50.096;20.082;2023-08-20T07:35:24;99397.80;;;36.00
67822;BMP180;54434;50.096;20.082;2023-08-20T07:38:03;99394.20;;;36.10
67822;BMP180;54434;50.096;20.082;2023-08-20T07:40:40;99396.60;;;36.24
67822;BMP180;54434;50.096;20.082;2023-08-20T07:43:17;99398.00;;;36.30
67822;BMP180;54434;50.096;20.082;2023-08-20T07:45:53;99392.20;;;36.30
67822;BMP180;54434;50.096;20.082;2023-08-20T07:48:29;99391.40;;;36.30
67822;BMP180;54434;50.096;20.082;2023-08-20T07:51:06;99390.60;;;36.30
67822;BMP180;54434;50.096;20.082;2023-08-20T07:53:42;99387.80;;;36.30
67822;BMP180;54434;50.096;20.082;2023-08-20T07:56:19;99391.40;;;36.56
67822;BMP180;54434;50.096;20.082;2023-08-20T07:58:55;99389.60;;;36.70
67822;BMP180;54434;50.096;20.082;2023-08-20T08:01:32;99391.00;;;36.70
67822;BMP180;54434;50.096;20.082;2023-08-20T08:04:09;99389.60;;;36.80
67822;BMP180;54434;50.096;20.082;2023-08-20T08:06:45;99392.20;;;36.84
67822;BMP180;54434;50.096;20.082;2023-08-20T08:09:27;99390.20;;;36.80
67822;BMP180;54434;50.096;20.082;2023-08-20T08:12:06;99393.00;;;36.80
67822;BMP180;54434;50.096;20.082;2023-08-20T08:14:42;99394.00;;;36.80
67822;BMP180;54434;50.096;20.082;2023-08-20T08:17:18;99392.60;;;36.80
67822;BMP180;54434;50.096;20.082;2023-08-20T08:19:58;99396.80;;;36.60
67822;BMP180;54434;50.096;20.082;2023-08-20T08:22:34;99395.60;;;36.60
67822;BMP180;54434;50.096;20.082;2023-08-20T08:25:11;99395.60;;;36.54
67822;BMP180;54434;50.096;20.082;2023-08-20T08:27:49;99392.00;;;36.40
67822;BMP180;54434;50.096;20.082;2023-08-20T08:30:34;99394.20;;;36.36
67822;BMP180;54434;50.096;20.082;2023-08-20T08:33:10;99396.40;;;36.36
67822;BMP180;54434;50.096;20.082;2023-08-20T08:35:47;99394.20;;;36.30
67822;BMP180;54434;50.096;20.082;2023-08-20T08:38:24;99397.00;;;36.30
67822;BMP180;54434;50.096;20.082;2023-08-20T08:41:04;99393.40;;;36.40
67822;BMP180;54434;50.096;20.082;2023-08-20T08:43:43;99396.00;;;36.38
67822;BMP180;54434;50.096;20.082;2023-08-20T08:46:22;99393.80;;;36.40
67822;BMP180;54434;50.096;20.082;2023-08-20T08:49:01;99397.40;;;36.40
67822;BMP180;54434;50.096;20.082;2023-08-20T08:51:40;99394.00;;;36.40
67822;BMP180;54434;50.096;20.082;2023-08-20T08:54:17;99399.20;;;36.50
67822;BMP180;54434;50.096;20.082;2023-08-20T08:56:53;99397.60;;;36.40
67822;BMP180;54434;50.096;20.082;2023-08-20T08:59:29;99392.40;;;36.40
67822;BMP180;54434;50.096;20.082;2023-08-20T09:02:11;99392.40;;;36.30
67822;BMP180;54434;50.096;20.082;2023-08-20T09:04:48;99392.00;;;36.20
67822;BMP180;54434;50.096;20.082;2023-08-20T09:07:24;99391.80;;;36.10
67822;BMP180;54434;50.096;20.082;2023-08-20T09:10:03;99398.00;;;36.10
67822;BMP180;54434;50.096;20.082;2023-08-20T09:12:40;99391.80;;;36.00
67822;BMP180;54434;50.096;20.082;2023-08-20T09:15:16;99393.80;;;35.86
67822;BMP180;54434;50.096;20.082;2023-08-20T09:17:53;99394.60;;;35.70
67822;BMP180;54434;50.096;20.082;2023-08-20T09:20:39;99392.00;;;35.60
67822;BMP180;54434;50.096;20.082;2023-08-20T09:23:17;99392.80;;;35.50
67822;BMP180;54434;50.096;20.082;2023-08-20T09:25:56;99397.20;;;35.40
67822;BMP180;54434;50.096;20.082;2023-08-20T09:28:42;99394.80;;;35.30
67822;BMP180;54434;50.096;20.082;2023-08-20T09:31:19;99398.00;;;35.20
67822;BMP180;54434;50.096;20.082;2023-08-20T09:33:56;99391.40;;;35.16
67822;BMP180;54434;50.096;20.082;2023-08-20T09:36:37;99388.60;;;35.10
67822;BMP180;54434;50.096;20.082;2023-08-20T09:39:13;99387.60;;;35.10
67822;BMP180;54434;50.096;20.082;2023-08-20T09:41:51;99392.80;;;35.00
67822;BMP180;54434;50.096;20.082;2023-08-20T09:44:32;99385.60;;;34.90
67822;BMP180;54434;50.096;20.082;2023-08-20T09:47:11;99384.80;;;34.90
67822;BMP180;54434;50.096;20.082;2023-08-20T09:49:50;99387.80;;;34.90
67822;BMP180;54434;50.096;20.082;2023-08-20T09:52:38;99375.80;;;34.90
67822;BMP180;54434;50.096;20.082;2023-08-20T09:55:21;99380.20;;;34.86
67822;BMP180;54434;50.096;20.082;2023-08-20T09:57:59;99384.00;;;34.70
67822;BMP180;54434;50.096;20.082;2023-08-20T10:00:38;99375.60;;;34.72
67822;BMP180;54434;50.096;20.082;2023-08-20T10:03:15;99383.80;;;34.80
67822;BMP180;54434;50.096;20.082;2023-08-20T10:05:52;99385.00;;;34.60
67822;BMP180;54434;50.096;20.082;2023-08-20T10:08:30;99380.00;;;34.20
67822;BMP180;54434;50.096;20.082;2023-08-20T10:11:07;99373.40;;;33.82
67822;BMP180;54434;50.096;20.082;2023-08-20T10:13:44;99373.60;;;33.54
67822;BMP180;54434;50.096;20.082;2023-08-20T10:16:23;99375.80;;;33.30
67822;BMP180;54434;50.096;20.082;2023-08-20T10:19:05;99376.20;;;32.90
67822;BMP180;54434;50.096;20.082;2023-08-20T10:21:47;99371.00;;;32.58
67822;BMP180;54434;50.096;20.082;2023-08-20T10:24:26;99367.40;;;32.28
67822;BMP180;54434;50.096;20.082;2023-08-20T10:27:25;99371.40;;;31.96
67822;BMP180;54434;50.096;20.082;2023-08-20T10:30:07;99374.00;;;31.70
67822;BMP180;54434;50.096;20.082;2023-08-20T10:32:51;99376.60;;;31.50
67822;BMP180;54434;50.096;20.082;2023-08-20T10:35:47;99379.40;;;31.40
67822;BMP180;54434;50.096;20.082;2023-08-20T10:38:25;99376.80;;;31.00
67822;BMP180;54434;50.096;20.082;2023-08-20T10:41:07;99373.80;;;30.58
67822;BMP180;54434;50.096;20.082;2023-08-20T10:43:49;99370.60;;;30.22
67822;BMP180;54434;50.096;20.082;2023-08-20T10:46:28;99368.00;;;29.90
67822;BMP180;54434;50.096;20.082;2023-08-20T10:49:06;99363.00;;;29.70
67822;BMP180;54434;50.096;20.082;2023-08-20T10:51:42;99362.00;;;29.46
67822;BMP180;54434;50.096;20.082;2023-08-20T10:54:19;99362.20;;;29.28
67822;BMP180;54434;50.096;20.082;2023-08-20T10:57:00;99363.20;;;29.06
67822;BMP180;54434;50.096;20.082;2023-08-20T10:59:42;99360.00;;;28.90
67822;BMP180;54434;50.096;20.082;2023-08-20T11:02:19;99357.60;;;28.80
67822;BMP180;54434;50.096;20.082;2023-08-20T11:04:57;99346.60;;;28.70
67822;BMP180;54434;50.096;20.082;2023-08-20T11:07:35;99345.60;;;28.60
67822;BMP180;54434;50.096;20.082;2023-08-20T11:10:14;99347.00;;;28.50
67822;BMP180;54434;50.096;20.082;2023-08-20T11:12:52;99344.40;;;28.50
67822;BMP180;54434;50.096;20.082;2023-08-20T11:15:29;99338.40;;;28.50
67822;BMP180;54434;50.096;20.082;2023-08-20T11:18:07;99339.60;;;28.50
67822;BMP180;54434;50.096;20.082;2023-08-20T11:20:45;99343.60;;;28.50
67822;BMP180;54434;50.096;20.082;2023-08-20T11:23:21;99346.20;;;28.60
67822;BMP180;54434;50.096;20.082;2023-08-20T11:25:59;99343.60;;;28.80
67822;BMP180;54434;50.096;20.082;2023-08-20T11:28:35;99337.00;;;28.90
67822;BMP180;54434;50.096;20.082;2023-08-20T11:31:11;99333.40;;;28.98
67822;BMP180;54434;50.096;20.082;2023-08-20T11:33:48;99329.40;;;29.00
67822;BMP180;54434;50.096;20.082;2023-08-20T11:36:26;99328.00;;;29.10
67822;BMP180;54434;50.096;20.082;2023-08-20T11:39:02;99322.80;;;29.20
67822;BMP180;54434;50.096;20.082;2023-08-20T11:41:41;99327.40;;;29.48
67822;BMP180;54434;50.096;20.082;2023-08-20T11:44:27;99328.00;;;29.70
67822;BMP180;54434;50.096;20.082;2023-08-20T11:47:14;99326.00;;;29.80
67822;BMP180;54434;50.096;20.082;2023-08-20T11:50:03;99330.20;;;29.90
67822;BMP180;54434;50.096;20.082;2023-08-20T11:52:40;99333.60;;;29.90
67822;BMP180;54434;50.096;20.082;2023-08-20T11:55:23;99330.80;;;29.90
67822;BMP180;54434;50.096;20.082;2023-08-20T11:58:00;99323.00;;;29.90
67822;BMP180;54434;50.096;20.082;2023-08-20T12:00:37;99322.80;;;29.90
67822;BMP180;54434;50.096;20.082;2023-08-20T12:03:13;99324.60;;;29.80
67822;BMP180;54434;50.096;20.082;2023-08-20T12:05:50;99327.80;;;29.80
67822;BMP180;54434;50.096;20.082;2023-08-20T12:08:27;99328.80;;;29.72
67822;BMP180;54434;50.096;20.082;2023-08-20T12:11:04;99326.20;;;29.70
67822;BMP180;54434;50.096;20.082;2023-08-20T12:13:40;99322.80;;;29.60
67822;BMP180;54434;50.096;20.082;2023-08-20T12:16:17;99320.00;;;29.50
67822;BMP180;54434;50.096;20.082;2023-08-20T12:18:54;99320.20;;;29.50
67822;BMP180;54434;50.096;20.082;2023-08-20T12:21:30;99320.40;;;29.50
67822;BMP180;54434;50.096;20.082;2023-08-20T12:24:10;99325.00;;;29.50
67822;BMP180;54434;50.096;20.082;2023-08-20T12:26:46;99320.80;;;29.50
67822;BMP180;54434;50.096;20.082;2023-08-20T12:29:23;99315.60;;;29.50
67822;BMP180;54434;50.096;20.082;2023-08-20T12:31:59;99312.60;;;29.60
67822;BMP180;54434;50.096;20.082;2023-08-20T12:34:39;99304.40;;;29.70
67822;BMP180;54434;50.096;20.082;2023-08-20T12:37:15;99298.20;;;29.80
67822;BMP180;54434;50.096;20.082;2023-08-20T12:39:52;99297.40;;;29.96
67822;BMP180;54434;50.096;20.082;2023-08-20T12:42:28;99293.80;;;30.10
67822;BMP180;54434;50.096;20.082;2023-08-20T12:45:06;99300.00;;;30.30
67822;BMP180;54434;50.096;20.082;2023-08-20T12:47:43;99295.60;;;30.46
67822;BMP180;54434;50.096;20.082;2023-08-20T12:50:19;99294.20;;;30.70
67822;BMP180;54434;50.096;20.082;2023-08-20T12:52:56;99293.60;;;30.90
67822;BMP180;54434;50.096;20.082;2023-08-20T12:55:33;99290.80;;;31.10
67822;BMP180;54434;50.096;20.082;2023-08-20T12:58:10;99288.20;;;31.20
67822;BMP180;54434;50.096;20.082;2023-08-20T13:00:46;99288.00;;;31.40
67822;BMP180;54434;50.096;20.082;2023-08-20T13:03:24;99290.20;;;31.50
67822;BMP180;54434;50.096;20.082;2023-08-20T13:06:05;99289.60;;;31.54
67822;BMP180;54434;50.096;20.082;2023-08-20T13:08:43;99288.60;;;31.52
67822;BMP180;54434;50.096;20.082;2023-08-20T13:11:25;99287.40;;;31.60
67822;BMP180;54434;50.096;20.082;2023-08-20T13:14:03;99281.20;;;31.72
67822;BMP180;54434;50.096;20.082;2023-08-20T13:16:42;99285.60;;;31.80
67822;BMP180;54434;50.096;20.082;2023-08-20T13:19:20;99284.60;;;31.80
67822;BMP180;54434;50.096;20.082;2023-08-20T13:21:56;99283.80;;;31.70
67822;BMP180;54434;50.096;20.082;2023-08-20T13:24:32;99287.60;;;31.70
67822;BMP180;54434;50.096;20.082;2023-08-20T13:27:09;99283.60;;;31.78
67822;BMP180;54434;50.096;20.082;2023-08-20T13:29:46;99282.00;;;31.80
67822;BMP180;54434;50.096;20.082;2023-08-20T13:32:22;99280.40;;;31.70
67822;BMP180;54434;50.096;20.082;2023-08-20T13:34:59;99280.80;;;31.60
67822;BMP180;54434;50.096;20.082;2023-08-20T13:37:35;99281.60;;;31.50
67822;BMP180;54434;50.096;20.082;2023-08-20T13:40:14;99280.80;;;31.46
67822;BMP180;54434;50.096;20.082;2023-08-20T13:42:51;99272.40;;;31.40
67822;BMP180;54434;50.096;20.082;2023-08-20T13:45:27;99274.20;;;31.30
67822;BMP180;54434;50.096;20.082;2023-08-20T13:48:05;99275.00;;;31.20
67822;BMP180;54434;50.096;20.082;2023-08-20T13:50:42;99273.80;;;31.00
67822;BMP180;54434;50.096;20.082;2023-08-20T13:53:19;99273.60;;;30.90
67822;BMP180;54434;50.096;20.082;2023-08-20T13:55:57;99270.00;;;30.90
67822;BMP180;54434;50.096;20.082;2023-08-20T13:58:33;99267.80;;;30.90
67822;BMP180;54434;50.096;20.082;2023-08-20T14:01:09;99265.20;;;30.90
67822;BMP180;54434;50.096;20.082;2023-08-20T14:03:48;99260.20;;;30.90
67822;BMP180;54434;50.096;20.082;2023-08-20T14:06:25;99262.40;;;30.90
67822;BMP180;54434;50.096;20.082;2023-08-20T14:09:02;99257.40;;;30.90
67822;BMP180;54434;50.096;20.082;2023-08-20T14:11:39;99255.00;;;30.90
67822;BMP180;54434;50.096;20.082;2023-08-20T14:14:16;99254.40;;;30.90
67822;BMP180;54434;50.096;20.082;2023-08-20T14:16:52;99254.80;;;30.80
67822;BMP180;54434;50.096;20.082;2023-08-20T14:19:29;99255.60;;;30.80
67822;BMP180;54434;50.096;20.082;2023-08-20T14:22:05;99252.20;;;30.84
67822;BMP180;54434;50.096;20.082;2023-08-20T14:24:42;99253.00;;;30.90
67822;BMP180;54434;50.096;20.082;2023-08-20T14:27:18;99248.40;;;30.88
67822;BMP180;54434;50.096;20.082;2023-08-20T14:29:57;99247.00;;;30.90
67822;BMP180;54434;50.096;20.082;2023-08-20T14:32:34;99245.40;;;30.90
67822;BMP180;54434;50.096;20.082;2023-08-20T14:35:16;99246.00;;;30.90
67822;BMP180;54434;50.096;20.082;2023-08-20T14:37:54;99247.20;;;30.90
67822;BMP180;54434;50.096;20.082;2023-08-20T14:40:31;99245.60;;;30.90
67822;BMP180;54434;50.096;20.082;2023-08-20T14:43:10;99249.80;;;30.90
67822;BMP180;54434;50.096;20.082;2023-08-20T14:45:49;99248.00;;;30.80
67822;BMP180;54434;50.096;20.082;2023-08-20T14:48:26;99252.00;;;30.80
67822;BMP180;54434;50.096;20.082;2023-08-20T14:51:03;99254.40;;;30.70
67822;BMP180;54434;50.096;20.082;2023-08-20T14:53:39;99250.00;;;30.60
67822;BMP180;54434;50.096;20.082;2023-08-20T14:56:16;99246.80;;;30.60
67822;BMP180;54434;50.096;20.082;2023-08-20T14:58:52;99250.80;;;30.60